Time,TemperatureF,DewpointF,PressureIn,WindDirection,WindDirectionDegrees,WindSpeedMPH,WindSpeedGustMPH,Humidity,HourlyPrecipIn,Conditions,Clouds,dailyrainin,SoftwareType,DateUTC
2013-07-15 00:00:00,61.4,51.0,29.79,ENE,60,0.0,0.0,69,0.00,,,0.03,weatherlink.com 1.10,2013-07-15 06:00:00,
2013-07-15 00:15:00,61.3,51.0,29.79,ENE,72,0.0,0.0,68,0.00,,,0.03,weatherlink.com 1.10,2013-07-15 06:15:00,
2013-07-15 00:30:00,60.7,50.0,29.80,ENE,73,0.0,0.0,67,0.00,,,0.03,weatherlink.com 1.10,2013-07-15 06:30:00,
2013-07-15 00:45:00,60.6,49.0,29.80,ENE,73,0.0,0.0,66,0.00,,,0.03,weatherlink.com 1.10,2013-07-15 06:45:00,
2013-07-15 01:00:00,60.5,49.0,29.79,ENE,73,0.0,0.0,65,0.00,,,0.03,weatherlink.com 1.10,2013-07-15 07:00:00,
2013-07-15 01:15:00,60.5,49.0,29.79,ENE,74,0.0,0.0,67,0.00,,,0.03,weatherlink.com 1.10,2013-07-15 07:15:00,
2013-07-15 01:30:00,60.3,50.0,29.79,NE,37,0.0,6.0,70,0.00,,,0.03,weatherlink.com 1.10,2013-07-15 07:30:00,
2013-07-15 01:45:00,59.6,51.0,29.79,ENE,58,5.0,6.0,72,0.00,,,0.03,weatherlink.com 1.10,2013-07-15 07:45:00,
2013-07-15 02:00:00,59.8,50.0,29.78,NNE,15,2.0,8.0,71,0.00,,,0.03,weatherlink.com 1.10,2013-07-15 08:00:00,
2013-07-15 02:15:00,60.1,51.0,29.78,ENE,60,0.0,7.0,71,0.00,,,0.03,weatherlink.com 1.10,2013-07-15 08:15:00,
2013-07-15 02:30:00,59.9,50.0,29.78,East,79,3.0,8.0,71,0.00,,,0.03,weatherlink.com 1.10,2013-07-15 08:30:00,
2013-07-15 02:45:00,61.1,50.0,29.78,ENE,67,0.0,12.0,67,0.00,,,0.03,weatherlink.com 1.10,2013-07-15 08:45:00,
2013-07-15 03:00:00,59.9,49.0,29.78,East,91,0.0,0.0,68,0.00,,,0.03,weatherlink.com 1.10,2013-07-15 09:00:00,
2013-07-15 03:15:00,59.2,49.0,29.78,ENE,66,4.0,5.0,68,0.00,,,0.03,weatherlink.com 1.10,2013-07-15 09:15:00,
2013-07-15 03:30:00,59.5,49.0,29.78,ENE,70,0.0,6.0,68,0.00,,,0.03,weatherlink.com 1.10,2013-07-15 09:30:00,
2013-07-15 03:45:00,59.0,48.0,29.78,ENE,70,0.0,0.0,68,0.00,,,0.03,weatherlink.com 1.10,2013-07-15 09:45:00,
2013-07-15 04:00:00,57.5,48.0,29.78,ENE,70,0.0,0.0,70,0.00,,,0.03,weatherlink.com 1.10,2013-07-15 10:00:00,
2013-07-15 04:15:00,57.0,48.0,29.78,ENE,70,0.0,0.0,72,0.00,,,0.03,weatherlink.com 1.10,2013-07-15 10:15:00,
2013-07-15 04:30:00,56.8,48.0,29.78,ENE,65,0.0,3.0,73,0.00,,,0.03,weatherlink.com 1.10,2013-07-15 10:30:00,
2013-07-15 04:46:00,56.3,48.0,29.78,NE,39,0.0,0.0,73,0.00,,,0.03,weatherlink.com 1.10,2013-07-15 10:46:00,
2013-07-15 05:01:00,53.9,46.0,29.78,NE,44,0.0,0.0,75,0.00,,,0.03,weatherlink.com 1.10,2013-07-15 11:01:00,
2013-07-15 05:16:00,54.6,47.0,29.78,NE,49,0.0,0.0,75,0.00,,,0.03,weatherlink.com 1.10,2013-07-15 11:16:00,
2013-07-15 05:31:00,55.5,47.0,29.79,NE,49,0.0,0.0,73,0.00,,,0.03,weatherlink.com 1.10,2013-07-15 11:31:00,
2013-07-15 05:46:00,53.6,46.0,29.79,NE,49,0.0,0.0,76,0.00,,,0.03,weatherlink.com 1.10,2013-07-15 11:46:00,
2013-07-15 06:01:00,55.4,46.0,29.79,NE,49,0.0,0.0,72,0.00,,,0.03,weatherlink.com 1.10,2013-07-15 12:01:00,
2013-07-15 06:16:00,54.6,46.0,29.79,NE,49,0.0,0.0,73,0.00,,,0.03,weatherlink.com 1.10,2013-07-15 12:16:00,
2013-07-15 06:31:00,55.4,48.0,29.79,NE,49,0.0,0.0,75,0.00,,,0.03,weatherlink.com 1.10,2013-07-15 12:31:00,
2013-07-15 06:46:00,54.6,48.0,29.79,NE,49,0.0,0.0,77,0.00,,,0.03,weatherlink.com 1.10,2013-07-15 12:46:00,
2013-07-15 07:01:00,55.2,48.0,29.80,NE,49,0.0,0.0,78,0.00,,,0.03,weatherlink.com 1.10,2013-07-15 13:01:00,
2013-07-15 07:16:00,57.5,49.0,29.80,NE,49,0.0,1.0,74,0.00,,,0.00,weatherlink.com 1.10,2013-07-15 13:16:00,
2013-07-15 07:31:00,58.1,49.0,29.80,NE,49,5.0,8.0,72,0.00,,,0.00,weatherlink.com 1.10,2013-07-15 13:31:00,
2013-07-15 07:46:00,60.0,50.0,29.80,NE,51,0.0,6.0,70,0.00,,,0.00,weatherlink.com 1.10,2013-07-15 13:46:00,
2013-07-15 08:01:00,62.5,51.0,29.80,NE,52,0.0,0.0,66,0.00,,,0.00,weatherlink.com 1.10,2013-07-15 14:01:00,
2013-07-15 08:16:00,64.6,50.0,29.80,NE,52,0.0,0.0,60,0.00,,,0.00,weatherlink.com 1.10,2013-07-15 14:16:00,
2013-07-15 08:31:00,64.1,51.0,29.79,NE,52,0.0,0.0,62,0.00,,,0.00,weatherlink.com 1.10,2013-07-15 14:31:00,
2013-07-15 09:16:00,68.8,52.0,29.78,North,9,0.0,7.0,56,0.00,,,0.00,weatherlink.com 1.10,2013-07-15 15:16:00,
2013-07-15 09:46:00,71.3,53.0,29.77,NE,39,0.0,0.0,53,0.00,,,0.00,weatherlink.com 1.10,2013-07-15 15:46:00,
2013-07-15 10:01:00,71.3,54.0,29.76,NNW,346,2.0,6.0,54,0.00,,,0.00,weatherlink.com 1.10,2013-07-15 16:01:00,
2013-07-15 10:16:00,71.5,53.0,29.76,NNW,330,0.0,2.0,52,0.00,,,0.00,weatherlink.com 1.10,2013-07-15 16:16:00,
2013-07-15 10:31:00,72.3,53.0,29.75,West,275,2.0,7.0,51,0.00,,,0.00,weatherlink.com 1.10,2013-07-15 16:31:00,
2013-07-15 10:47:00,73.4,52.0,29.75,West,276,0.0,7.0,48,0.00,,,0.00,weatherlink.com 1.10,2013-07-15 16:47:00,
2013-07-15 11:17:00,75.0,52.0,29.74,North,356,0.0,0.0,45,0.00,,,0.00,weatherlink.com 1.10,2013-07-15 17:17:00,
2013-07-15 11:32:00,75.4,52.0,29.74,NNE,12,0.0,5.0,44,0.00,,,0.00,weatherlink.com 1.10,2013-07-15 17:32:00,
2013-07-15 11:47:00,75.1,50.0,29.73,NNE,24,0.0,6.0,42,0.00,,,0.00,weatherlink.com 1.10,2013-07-15 17:47:00,
2013-07-15 12:02:00,75.1,52.0,29.72,NNE,24,0.0,0.0,45,0.00,,,0.00,weatherlink.com 1.10,2013-07-15 18:02:00,
2013-07-15 12:17:00,76.4,50.0,29.71,NNE,24,0.0,1.0,39,0.00,,,0.00,weatherlink.com 1.10,2013-07-15 18:17:00,
2013-07-15 12:47:00,79.6,51.0,29.69,SW,231,0.0,8.0,37,0.00,,,0.00,weatherlink.com 1.10,2013-07-15 18:47:00,
2013-07-15 13:02:00,79.8,51.0,29.68,SSW,197,5.0,5.0,36,0.00,,,0.00,weatherlink.com 1.10,2013-07-15 19:02:00,
2013-07-15 13:17:00,80.7,50.0,29.67,NE,46,2.0,5.0,34,0.00,,,0.00,weatherlink.com 1.10,2013-07-15 19:17:00,
2013-07-15 13:32:00,80.5,51.0,29.66,North,360,0.0,6.0,36,0.00,,,0.00,weatherlink.com 1.10,2013-07-15 19:32:00,
2013-07-15 13:47:00,81.8,52.0,29.66,North,4,3.0,9.0,35,0.00,,,0.00,weatherlink.com 1.10,2013-07-15 19:47:00,
2013-07-15 14:02:00,81.7,52.0,29.64,NW,323,2.0,10.0,36,0.00,,,0.00,weatherlink.com 1.10,2013-07-15 20:02:00,
2013-07-15 14:32:00,83.2,50.0,29.63,NW,326,0.0,9.0,32,0.00,,,0.00,weatherlink.com 1.10,2013-07-15 20:32:00,
2013-07-15 15:02:00,85.3,52.0,29.62,North,352,0.0,8.0,32,0.00,,,0.00,weatherlink.com 1.10,2013-07-15 21:02:00,
2013-07-15 15:32:00,80.5,50.0,29.60,North,359,0.0,3.0,35,0.00,,,0.00,weatherlink.com 1.10,2013-07-15 21:32:00,
2013-07-15 15:47:00,79.5,51.0,29.59,NE,34,9.0,11.0,37,0.00,,,0.00,weatherlink.com 1.10,2013-07-15 21:47:00,
2013-07-15 16:02:00,81.3,50.0,29.59,North,357,6.0,12.0,34,0.00,,,0.00,weatherlink.com 1.10,2013-07-15 22:02:00,
2013-07-15 16:18:00,82.3,50.0,29.59,NW,315,3.0,12.0,32,0.00,,,0.00,weatherlink.com 1.10,2013-07-15 22:18:00,
2013-07-15 16:33:00,78.9,50.0,29.60,NNE,14,12.0,17.0,36,0.00,,,0.00,weatherlink.com 1.10,2013-07-15 22:33:00,
2013-07-15 16:48:00,76.1,49.0,29.59,NE,48,7.0,20.0,38,0.00,,,0.00,weatherlink.com 1.10,2013-07-15 22:48:00,
2013-07-15 17:03:00,75.4,52.0,29.60,NNE,24,8.0,17.0,44,0.00,,,0.00,weatherlink.com 1.10,2013-07-15 23:03:00,
2013-07-15 17:18:00,72.9,52.0,29.59,North,4,10.0,27.0,48,0.00,,,0.00,weatherlink.com 1.10,2013-07-15 23:18:00,
2013-07-15 17:33:00,73.0,53.0,29.60,North,11,18.0,22.0,49,0.00,,,0.00,weatherlink.com 1.10,2013-07-15 23:33:00,
2013-07-15 18:03:00,67.2,52.0,29.62,NE,45,13.0,25.0,59,0.00,,,0.00,weatherlink.com 1.10,2013-07-16 00:03:00,
2013-07-15 18:18:00,62.4,54.0,29.63,ENE,62,7.0,20.0,73,0.01,,,0.01,weatherlink.com 1.10,2013-07-16 00:18:00,
2013-07-15 18:33:00,61.4,55.0,29.64,ESE,116,1.0,12.0,79,0.02,,,0.02,weatherlink.com 1.10,2013-07-16 00:33:00,
2013-07-15 18:48:00,61.8,56.0,29.63,SSE,168,0.0,0.0,81,0.03,,,0.03,weatherlink.com 1.10,2013-07-16 00:48:00,
2013-07-15 19:03:00,62.0,54.0,29.62,SSE,149,3.0,13.0,74,0.04,,,0.04,weatherlink.com 1.10,2013-07-16 01:03:00,
2013-07-15 19:33:00,63.1,55.0,29.63,West,264,0.0,0.0,75,0.02,,,0.04,weatherlink.com 1.10,2013-07-16 01:33:00,
2013-07-15 19:48:00,64.0,57.0,29.64,West,264,0.0,0.0,77,0.01,,,0.04,weatherlink.com 1.10,2013-07-16 01:48:00,
2013-07-15 20:03:00,63.8,56.0,29.64,West,264,0.0,0.0,77,0.00,,,0.04,weatherlink.com 1.10,2013-07-16 02:03:00,
2013-07-15 20:33:00,61.2,54.0,29.64,North,350,0.0,0.0,78,0.00,,,0.04,weatherlink.com 1.10,2013-07-16 02:33:00,
2013-07-15 21:03:00,60.8,54.0,29.65,East,84,0.0,0.0,78,0.00,,,0.04,weatherlink.com 1.10,2013-07-16 03:03:00,
2013-07-15 21:18:00,60.7,53.0,29.66,East,82,0.0,0.0,77,0.00,,,0.04,weatherlink.com 1.10,2013-07-16 03:18:00,
2013-07-15 21:33:00,60.2,53.0,29.67,East,81,0.0,0.0,77,0.00,,,0.04,weatherlink.com 1.10,2013-07-16 03:33:00,
2013-07-15 21:48:00,59.4,52.0,29.67,ENE,77,0.0,0.0,77,0.00,,,0.04,weatherlink.com 1.10,2013-07-16 03:48:00,
2013-07-15 22:03:00,59.0,52.0,29.68,East,79,0.0,0.0,77,0.00,,,0.04,weatherlink.com 1.10,2013-07-16 04:03:00,
2013-07-15 22:18:00,59.3,51.0,29.69,East,79,0.0,0.0,75,0.00,,,0.04,weatherlink.com 1.10,2013-07-16 04:18:00,
2013-07-15 22:33:00,59.6,50.0,29.70,ENE,75,0.0,0.0,70,0.00,,,0.04,weatherlink.com 1.10,2013-07-16 04:33:00,
2013-07-15 22:48:00,59.9,50.0,29.70,ENE,74,0.0,0.0,70,0.00,,,0.04,weatherlink.com 1.10,2013-07-16 04:48:00,
2013-07-15 23:03:00,60.2,50.0,29.71,ENE,74,0.0,0.0,68,0.00,,,0.04,weatherlink.com 1.10,2013-07-16 05:03:00,
2013-07-15 23:18:00,60.4,51.0,29.71,ENE,74,0.0,0.0,70,0.00,,,0.04,weatherlink.com 1.10,2013-07-16 05:18:00,
2013-07-15 23:33:00,60.0,51.0,29.71,ENE,70,0.0,0.0,71,0.00,,,0.04,weatherlink.com 1.10,2013-07-16 05:33:00,
2013-07-15 23:48:00,60.0,50.0,29.71,ENE,70,0.0,0.0,70,0.00,,,0.04,weatherlink.com 1.10,2013-07-16 05:48:00,